Aberdeen, Wielka Brytania

23:46 BST dnia 20-październik-2014 (GMT +0100)
Brigde of Don | Change Station
CLOSE
Current Station
Stacja PWS
Location: Aberdeen, SCOTLAND
n.p.m.: 233 ft
Najbliższa stacja pogodowa

Wysokość 233 ft 57.20 °N, 2.13 °W | Updated 5 seconds ago

Mostly Cloudy
przewaga chmur
52.5 ° F
Odczuwalna 52.5 ° F
Płn.
8.0
Wiatr zmienny Wiatr od PdPdZd
Gusts 18.0 mph

Dziś
Wysoka -- | Niska -- ° F
--% Prawdop. opadów
Wczoraj
Wysoka -- | Niska -- ° F
Precip. -- cali
7:52 AM 5:53 PM
Zmniejszający się sierp Księżyca, 9% visible
Ciśnienie 29.39 cali
Widzialność 6.2 mil
chmury przewaga chmur 1600 ft
Punkt rosy 50 ° F
Wilgotność 90%
Opady deszczu 0.00 cali
grubość pokrywy śnieżnej Niedostępne.
UV 0 z 12
Pyłki Niedostępne.
Jakość powietrza Niedostępne.
Flu Activity Niedostępne.
METAR EGPD 202220Z AUTO 17013KT 9999 BKN016/// 11/09 Q0995

More Conditions Fewer Conditions

Ciśnienie 29.39 cali
Widzialność 6.2 mil
chmury przewaga chmur 1600 ft
Punkt rosy 50 ° F
Wilgotność 90%
Opady deszczu 0.00 cali
grubość pokrywy śnieżnej Niedostępne.
UV 0 z 12
Pyłki Niedostępne.
Jakość powietrza Niedostępne.
Flu Activity Niedostępne.
METAR EGPD 202220Z AUTO 17013KT 9999 BKN016/// 11/09 Q0995

More Conditions Fewer Conditions

10-Day Weather Forecast

Almanac

Astronomia

Oct. 20, 2014 Wschód Zachów
Aktualny czas 07:52 BST 17:53 BST
Zmierzch cywilny 07:13 BST 18:32 BST
Zmierzch żeglarski 06:28 BST 19:17 BST
świt/zmierzch astronomiczny 05:44 BST 20:01 BST
Księżyc 03:48 BST 16:41 BST
całkowite oświetlenie 11h 19m
Długość dnia
10h 00m
Tomorrow will be 4m 43s shorter.
Zmniejszający się sierp Księżyca, 9% of the Moon is Illuminated
Dziś
Zmniejszający się sierp Księżyca
Październik 23
Nowy
Październik 30
Pierwsza kwadra
Listopad 6
Pełnia Księżyca
Listopad 14
Ostatnia kwadra

Wczorajsze ekstrema

Country Highs Country Lows

Community

WunderPhotos

Upload Photos

1,763,541 zdjęcia zostały przesłane!

WunderBlogs® & News

By Dr. Jeff Masters
Director of Meteorology, Weather Underground
By Kari Strenfel
Meteorologist, Weather Underground
By Christopher C. Burt
Weather Historian, Weather Underground
October 20, 2014
October 20, 2014
October 20, 2014

Nearby

Jakość powietrza

Not available.

Głębokość pokrywy śnieżnej

Not available.

Aktywność sejsmiczna

Miejscowość Distance Mag. Time & Date
No recent earthquake activity has been reported nearby.
Minimum magnitude displayed is 2.5.

Temperatury wody na wybrzeżu

Miejsce Temperatura
Nie znaleziono stacji

Najbliższa stacja pogodowa